createdAt,value
2018-10-12T00:02:26.256Z,19.20
2018-10-12T00:04:55.461Z,16.37
2018-10-12T00:07:24.961Z,15.83
2018-10-12T00:09:54.471Z,15.17
2018-10-12T00:12:23.877Z,15.35
2018-10-12T00:14:52.965Z,14.53
2018-10-12T00:17:23.978Z,13.80
2018-10-12T00:19:56.786Z,17.83
2018-10-12T00:22:25.812Z,14.83
2018-10-12T00:24:55.349Z,13.80
2018-10-12T00:27:25.624Z,13.37
2018-10-12T00:29:55.641Z,15.57
2018-10-12T00:32:24.755Z,17.07
2018-10-12T00:34:53.809Z,15.77
2018-10-12T00:37:23.438Z,12.23
2018-10-12T00:39:52.682Z,13.53
2018-10-12T00:42:22.016Z,13.03
2018-10-12T00:44:51.697Z,16.63
2018-10-12T00:47:21.568Z,13.80
2018-10-12T00:49:51.088Z,11.30
2018-10-12T00:52:20.021Z,12.93
2018-10-12T00:54:49.429Z,12.30
2018-10-12T00:57:18.681Z,11.87
2018-10-12T00:59:47.461Z,16.43
2018-10-12T01:02:16.904Z,14.20
2018-10-12T01:04:46.195Z,14.65
2018-10-12T01:07:15.951Z,11.70
2018-10-12T01:09:45.825Z,18.20
2018-10-12T01:12:50.331Z,13.10
2018-10-12T01:15:19.169Z,12.57
2018-10-12T01:17:48.298Z,12.00
2018-10-12T01:20:18.085Z,14.27
2018-10-12T01:22:47.209Z,15.50
2018-10-12T01:25:16.280Z,13.10
2018-10-12T01:27:46.082Z,11.73
2018-10-12T01:30:15.185Z,12.37
2018-10-12T01:32:50.113Z,15.43
2018-10-12T01:35:18.928Z,14.33
2018-10-12T01:37:48.741Z,11.97
2018-10-12T01:40:18.217Z,14.30
2018-10-12T01:42:47.784Z,12.40
2018-10-12T01:45:17.371Z,13.07
2018-10-12T01:47:46.755Z,15.07
2018-10-12T01:50:16.208Z,15.00
2018-10-12T01:52:45.577Z,12.07
2018-10-12T01:55:14.904Z,12.90
2018-10-12T01:57:44.806Z,13.37
2018-10-12T02:00:14.649Z,12.40
2018-10-12T02:02:44.106Z,11.93
2018-10-12T02:05:13.017Z,12.27
2018-10-12T02:07:41.740Z,12.90
2018-10-12T02:10:11.225Z,14.80
2018-10-12T02:12:40.404Z,13.03
2018-10-12T02:15:09.704Z,12.87
2018-10-12T02:17:39.391Z,13.17
2018-10-12T02:20:08.825Z,11.90
2018-10-12T02:22:38.969Z,14.20
2018-10-12T02:25:07.518Z,14.70
2018-10-12T02:27:36.467Z,12.93
2018-10-12T02:30:06.140Z,17.07
2018-10-12T02:32:35.797Z,16.67
2018-10-12T02:35:05.199Z,17.70
2018-10-12T02:37:34.709Z,14.57
2018-10-12T02:40:04.032Z,12.27
2018-10-12T02:42:33.305Z,18.40
2018-10-12T02:45:03.035Z,15.67
2018-10-12T02:47:32.647Z,18.27
2018-10-12T02:50:01.937Z,13.10
2018-10-12T02:52:31.355Z,18.00
2018-10-12T02:55:00.739Z,14.60
2018-10-12T02:57:29.869Z,11.67
2018-10-12T02:59:59.668Z,14.17
2018-10-12T03:02:29.023Z,12.07
2018-10-12T03:04:57.825Z,17.57
2018-10-12T03:07:26.972Z,16.67
2018-10-12T03:09:56.841Z,17.97
2018-10-12T03:12:25.999Z,17.00
2018-10-12T03:14:55.778Z,15.83
2018-10-12T03:17:25.100Z,12.77
2018-10-12T03:19:54.953Z,16.40
2018-10-12T03:22:24.528Z,16.43
2018-10-12T03:24:55.374Z,17.50
2018-10-12T03:27:25.677Z,20.30
2018-10-12T03:29:55.017Z,15.10
2018-10-12T03:32:24.937Z,17.80
2018-10-12T03:34:54.433Z,16.73
2018-10-12T03:37:24.276Z,16.53
2018-10-12T03:39:54.638Z,16.07
2018-10-12T03:42:23.905Z,17.00
2018-10-12T03:44:53.445Z,16.27
2018-10-12T03:47:22.589Z,15.93
2018-10-12T03:49:51.838Z,16.07
2018-10-12T03:52:20.728Z,13.63
2018-10-12T03:54:49.448Z,16.53
2018-10-12T03:57:19.334Z,15.03
2018-10-12T03:59:48.729Z,14.50
2018-10-12T04:02:17.654Z,17.23
2018-10-12T04:04:47.120Z,17.70
2018-10-12T04:07:16.177Z,19.00
2018-10-12T04:09:45.287Z,21.80
2018-10-12T04:12:14.012Z,17.33
2018-10-12T04:14:43.169Z,14.67
2018-10-12T04:17:12.449Z,16.87
2018-10-12T04:19:41.623Z,19.97
2018-10-12T04:22:10.739Z,20.30
2018-10-12T04:24:40.432Z,17.20
2018-10-12T04:27:09.491Z,18.80
2018-10-12T04:29:39.551Z,18.20
2018-10-12T04:32:09.922Z,19.40
2018-10-12T04:34:39.512Z,22.07
2018-10-12T04:37:08.753Z,22.50
2018-10-12T04:39:42.770Z,21.27
2018-10-12T04:42:12.273Z,32.90
2018-10-12T04:44:41.215Z,26.17
2018-10-12T04:47:09.944Z,24.20
2018-10-12T04:49:39.341Z,23.53
2018-10-12T04:52:08.812Z,24.13
2018-10-12T04:54:38.112Z,25.07
2018-10-12T04:57:07.317Z,23.27
2018-10-12T04:59:36.513Z,24.30
2018-10-12T05:02:06.343Z,21.70
2018-10-12T05:04:35.611Z,23.90
2018-10-12T05:07:04.787Z,25.50
2018-10-12T05:09:34.448Z,22.63
2018-10-12T05:12:03.182Z,20.90
2018-10-12T05:14:33.190Z,22.23
2018-10-12T05:17:02.039Z,23.77
2018-10-12T05:19:31.085Z,25.17
2018-10-12T05:21:59.869Z,23.40
2018-10-12T05:24:28.764Z,21.77
2018-10-12T05:26:57.741Z,24.00
2018-10-12T05:29:26.645Z,24.17
2018-10-12T05:31:56.971Z,24.57
2018-10-12T05:34:26.116Z,25.57
2018-10-12T05:36:55.624Z,25.23
2018-10-12T05:39:24.412Z,26.33
2018-10-12T05:41:53.713Z,28.63
2018-10-12T05:44:22.548Z,26.77
2018-10-12T05:46:52.182Z,28.90
2018-10-12T05:49:26.708Z,27.07
2018-10-12T05:51:56.076Z,28.10
2018-10-12T05:54:25.945Z,29.37
2018-10-12T05:56:54.941Z,35.60
2018-10-12T05:59:23.910Z,29.37
2018-10-12T06:01:52.805Z,31.30
2018-10-12T06:04:21.581Z,38.37
2018-10-12T06:06:50.001Z,35.57
2018-10-12T06:09:19.449Z,27.97
2018-10-12T06:11:49.240Z,33.00
2018-10-12T06:14:18.985Z,27.03
2018-10-12T06:16:48.277Z,32.70
2018-10-12T06:19:18.017Z,36.33
2018-10-12T06:21:47.357Z,32.63
2018-10-12T06:24:16.617Z,34.97
2018-10-12T06:26:45.856Z,30.27
2018-10-12T06:29:15.653Z,35.73
2018-10-12T06:31:44.920Z,40.70
2018-10-12T06:34:17.882Z,34.53
2018-10-12T06:36:47.602Z,33.37
2018-10-12T06:39:18.009Z,36.07
2018-10-12T06:41:47.036Z,41.23
2018-10-12T06:44:15.914Z,32.63
2018-10-12T06:46:45.436Z,32.30
2018-10-12T06:49:14.987Z,36.40
2018-10-12T06:51:43.814Z,36.63
2018-10-12T06:54:14.033Z,36.43
2018-10-12T06:56:43.090Z,34.40
2018-10-12T06:59:12.007Z,39.27
2018-10-12T07:01:41.481Z,40.73
2018-10-12T07:04:10.869Z,35.40
2018-10-12T07:06:40.163Z,32.90
2018-10-12T07:09:11.264Z,36.00
2018-10-12T07:11:40.248Z,39.63
2018-10-12T07:14:09.213Z,38.43
2018-10-12T07:16:41.577Z,34.63
2018-10-12T07:19:10.578Z,36.17
2018-10-12T07:21:39.698Z,36.83
2018-10-12T07:24:08.693Z,34.87
2018-10-12T07:26:37.044Z,41.73
2018-10-12T07:29:06.493Z,38.70
2018-10-12T07:31:35.844Z,38.07
2018-10-12T07:34:05.077Z,34.20
2018-10-12T07:36:34.089Z,35.40
2018-10-12T07:39:02.964Z,36.63
2018-10-12T07:41:32.983Z,38.83
2018-10-12T07:44:02.205Z,37.73
2018-10-12T07:46:31.274Z,37.90
2018-10-12T07:49:00.848Z,33.63
2018-10-12T07:51:29.777Z,38.30
2018-10-12T07:53:59.089Z,37.87
2018-10-12T07:56:28.413Z,39.80
2018-10-12T07:58:57.509Z,35.17
2018-10-12T08:01:26.795Z,36.43
2018-10-12T08:03:56.065Z,35.67
2018-10-12T08:06:26.195Z,37.90
2018-10-12T08:08:55.529Z,34.23
2018-10-12T08:11:24.485Z,39.13
2018-10-12T08:13:53.634Z,32.43
2018-10-12T08:16:22.949Z,37.43
2018-10-12T08:18:51.360Z,35.90
2018-10-12T08:21:20.744Z,34.30
2018-10-12T08:23:50.759Z,38.73
2018-10-12T08:26:20.695Z,34.03
2018-10-12T08:28:49.769Z,37.43
2018-10-12T08:31:19.140Z,31.40
2018-10-12T08:33:48.252Z,31.67
2018-10-12T08:36:17.420Z,33.10
2018-10-12T08:38:46.753Z,32.23
2018-10-12T08:41:15.837Z,32.37
2018-10-12T08:43:44.544Z,33.37
2018-10-12T08:46:13.747Z,29.97
2018-10-12T08:48:42.568Z,29.03
2018-10-12T08:51:11.909Z,29.33
2018-10-12T08:53:41.164Z,29.53
2018-10-12T08:56:11.942Z,30.47
2018-10-12T08:58:41.423Z,32.98
2018-10-12T09:01:10.753Z,31.50
2018-10-12T09:03:39.827Z,29.80
2018-10-12T09:06:09.551Z,29.13
2018-10-12T09:08:38.601Z,28.27
2018-10-12T09:11:07.760Z,24.93
2018-10-12T09:13:36.871Z,24.77
2018-10-12T09:16:06.703Z,26.57
2018-10-12T09:18:36.350Z,26.50
2018-10-12T09:21:05.586Z,28.27
2018-10-12T09:23:34.698Z,25.57
2018-10-12T09:26:03.908Z,25.20
2018-10-12T09:28:32.702Z,24.70
2018-10-12T09:31:01.766Z,23.97
2018-10-12T09:33:31.088Z,28.47
2018-10-12T09:36:00.460Z,24.40
2018-10-12T09:38:29.258Z,23.40
2018-10-12T09:40:58.420Z,25.77
2018-10-12T09:43:28.156Z,26.57
2018-10-12T09:45:57.848Z,24.50
2018-10-12T09:48:27.029Z,22.93
2018-10-12T09:50:56.429Z,23.17
2018-10-12T09:53:25.537Z,23.63
2018-10-12T09:55:54.542Z,25.07
2018-10-12T09:58:24.097Z,22.30
2018-10-12T10:00:58.529Z,25.03
2018-10-12T10:03:33.074Z,23.20
2018-10-12T10:06:02.702Z,26.60
2018-10-12T10:08:32.155Z,24.50
2018-10-12T10:11:01.103Z,25.00
2018-10-12T10:13:31.084Z,26.40
2018-10-12T10:16:00.543Z,26.13
2018-10-12T10:18:29.941Z,23.80
2018-10-12T10:20:58.715Z,26.97
2018-10-12T10:23:27.844Z,26.23
2018-10-12T10:25:56.529Z,22.33
2018-10-12T10:28:25.558Z,21.57
2018-10-12T10:30:54.652Z,24.73
2018-10-12T10:33:24.013Z,25.00
2018-10-12T10:35:53.397Z,23.43
2018-10-12T10:38:22.564Z,22.93
2018-10-12T10:40:51.543Z,19.07
2018-10-12T10:43:20.503Z,21.23
2018-10-12T10:45:49.599Z,19.67
2018-10-12T10:48:18.893Z,22.97
2018-10-12T10:50:47.761Z,23.70
2018-10-12T10:53:17.308Z,23.43
2018-10-12T10:55:46.769Z,21.60
2018-10-12T10:58:16.423Z,25.00
2018-10-12T11:00:45.775Z,22.03
2018-10-12T11:03:15.024Z,20.97
2018-10-12T11:05:43.834Z,22.00
2018-10-12T11:08:13.122Z,22.13
2018-10-12T11:10:41.881Z,20.60
2018-10-12T11:13:10.918Z,21.40
2018-10-12T11:15:40.084Z,19.70
2018-10-12T11:18:08.676Z,23.67
2018-10-12T11:20:38.221Z,20.60
2018-10-12T11:23:08.530Z,21.82
2018-10-12T11:25:37.625Z,20.97
2018-10-12T11:28:06.804Z,24.00
2018-10-12T11:30:35.604Z,20.87
2018-10-12T11:33:05.054Z,20.27
2018-10-12T11:35:34.122Z,18.90
2018-10-12T11:38:04.008Z,20.05
2018-10-12T11:40:33.273Z,18.57
2018-10-12T11:43:08.034Z,23.62
2018-10-12T11:45:36.789Z,21.90
2018-10-12T11:48:06.817Z,17.77
2018-10-12T11:50:35.841Z,21.37
2018-10-12T11:53:04.926Z,20.37
2018-10-12T11:55:35.090Z,20.57
2018-10-12T11:58:04.547Z,19.23
2018-10-12T12:00:33.721Z,20.60
2018-10-12T12:03:03.739Z,17.35
2018-10-12T12:05:32.051Z,20.90
2018-10-12T12:08:00.838Z,20.08
2018-10-12T12:10:30.058Z,17.50
2018-10-12T12:12:59.196Z,20.57
2018-10-12T12:15:29.118Z,17.55
2018-10-12T12:17:58.441Z,20.92
2018-10-12T12:20:27.358Z,21.95
2018-10-12T12:22:56.677Z,20.57
2018-10-12T12:25:26.144Z,21.55
2018-10-12T12:27:55.124Z,17.87
2018-10-12T12:30:24.712Z,18.17
2018-10-12T12:32:54.243Z,18.70
2018-10-12T12:35:24.845Z,17.15
2018-10-12T12:37:54.043Z,18.37
2018-10-12T12:40:23.429Z,19.33
2018-10-12T12:42:52.540Z,17.63
2018-10-12T12:45:21.972Z,16.07
2018-10-12T12:47:51.393Z,17.60
2018-10-12T12:50:20.444Z,17.13
2018-10-12T12:52:49.637Z,25.53
2018-10-12T12:55:18.584Z,17.67
2018-10-12T12:57:47.754Z,20.63
2018-10-12T13:00:17.279Z,22.23
2018-10-12T13:02:46.668Z,19.20
2018-10-12T13:05:16.440Z,20.10
2018-10-12T13:07:45.286Z,20.23
2018-10-12T13:10:14.176Z,21.97
2018-10-12T13:12:43.310Z,20.30
2018-10-12T13:15:12.760Z,18.23
2018-10-12T13:17:42.081Z,20.20
2018-10-12T13:20:11.418Z,20.37
2018-10-12T13:22:41.397Z,20.43
2018-10-12T13:25:10.668Z,17.93
2018-10-12T13:27:39.761Z,19.27
2018-10-12T13:30:08.444Z,20.97
2018-10-12T13:32:38.323Z,20.90
2018-10-12T13:35:07.565Z,21.43
2018-10-12T13:37:36.505Z,23.07
2018-10-12T13:40:05.749Z,20.53
2018-10-12T13:42:35.171Z,19.13
2018-10-12T13:45:04.279Z,22.17
2018-10-12T13:47:32.820Z,22.77
2018-10-12T13:50:02.590Z,18.60
2018-10-12T13:52:33.045Z,21.10
2018-10-12T13:55:01.996Z,19.07
2018-10-12T13:57:31.361Z,19.98
2018-10-12T14:00:00.797Z,22.73
2018-10-12T14:02:30.187Z,19.75
2018-10-12T14:04:59.553Z,22.82
2018-10-12T14:07:28.786Z,22.62
2018-10-12T14:09:58.120Z,20.80
2018-10-12T14:12:27.550Z,19.67
2018-10-12T14:14:56.428Z,23.73
2018-10-12T14:17:25.101Z,22.27
2018-10-12T14:19:54.239Z,20.45
2018-10-12T14:22:24.349Z,19.80
2018-10-12T14:24:53.576Z,19.85
2018-10-12T14:27:23.122Z,19.57
2018-10-12T14:29:51.910Z,21.73
2018-10-12T14:32:21.316Z,19.70
2018-10-12T14:34:50.842Z,17.57
2018-10-12T14:37:19.930Z,19.30
2018-10-12T14:39:49.672Z,20.35
2018-10-12T14:42:19.532Z,19.20
2018-10-12T14:44:49.306Z,20.72
2018-10-12T14:47:18.479Z,20.67
2018-10-12T14:49:48.853Z,19.67
2018-10-12T14:52:18.261Z,19.60
2018-10-12T14:54:47.101Z,24.33
2018-10-12T14:57:19.913Z,21.10
2018-10-12T14:59:51.285Z,23.13
2018-10-12T15:02:20.896Z,20.50
2018-10-12T15:04:50.576Z,20.50
2018-10-12T15:07:19.670Z,24.20
2018-10-12T15:09:48.627Z,21.73
2018-10-12T15:12:17.688Z,21.97
2018-10-12T15:14:52.180Z,21.30
2018-10-12T15:17:21.416Z,18.97
2018-10-12T15:19:50.771Z,20.67
2018-10-12T15:22:19.601Z,22.97
2018-10-12T15:24:48.485Z,21.70
2018-10-12T15:27:17.692Z,22.90
2018-10-12T15:29:46.708Z,21.42
2018-10-12T15:32:15.613Z,22.00
2018-10-12T15:34:45.074Z,23.10
2018-10-12T15:37:14.526Z,24.80
2018-10-12T15:39:43.879Z,26.03
2018-10-12T15:42:12.904Z,19.83
2018-10-12T15:44:42.307Z,22.67
2018-10-12T15:47:11.060Z,22.83
2018-10-12T15:49:40.246Z,24.00
2018-10-12T15:52:09.236Z,23.00
2018-10-12T15:54:38.370Z,24.60
2018-10-12T15:57:08.238Z,24.30
2018-10-12T15:59:37.725Z,25.80
2018-10-12T16:02:08.538Z,20.60
2018-10-12T16:04:38.176Z,23.80
2018-10-12T16:07:07.643Z,25.80
2018-10-12T16:09:37.485Z,22.33
2018-10-12T16:12:07.865Z,22.87
2018-10-12T16:14:37.445Z,24.97
2018-10-12T16:17:06.481Z,22.00
2018-10-12T16:19:36.529Z,26.00
2018-10-12T16:22:05.440Z,26.47
2018-10-12T16:24:34.769Z,24.43
2018-10-12T16:27:04.685Z,26.50
2018-10-12T16:29:33.676Z,23.07
2018-10-12T16:32:03.753Z,24.47
2018-10-12T16:34:32.637Z,26.43
2018-10-12T16:37:03.100Z,29.03
2018-10-12T16:39:32.653Z,28.37
2018-10-12T16:42:01.080Z,26.50
2018-10-12T16:44:30.728Z,27.10
2018-10-12T16:47:00.030Z,29.07
2018-10-12T16:49:28.820Z,25.63
2018-10-12T16:51:58.230Z,25.87
2018-10-12T16:54:28.196Z,23.77
2018-10-12T16:56:57.479Z,26.70
2018-10-12T16:59:26.780Z,25.30
2018-10-12T17:01:55.953Z,22.47
2018-10-12T17:04:25.898Z,25.87
2018-10-12T17:06:55.284Z,26.23
2018-10-12T17:09:24.405Z,26.50
2018-10-12T17:11:53.637Z,29.63
2018-10-12T17:14:22.532Z,28.70
2018-10-12T17:16:51.680Z,29.60
2018-10-12T17:19:21.424Z,30.27
2018-10-12T17:21:50.869Z,26.87
2018-10-12T17:24:19.541Z,26.93
2018-10-12T17:26:49.163Z,24.87
2018-10-12T17:29:18.296Z,32.93
2018-10-12T17:31:47.489Z,25.73
2018-10-12T17:34:17.273Z,29.90
2018-10-12T17:36:46.625Z,28.40
2018-10-12T17:39:16.146Z,27.07
2018-10-12T17:41:45.236Z,25.17
2018-10-12T17:44:14.638Z,25.67
2018-10-12T17:46:44.231Z,24.43
2018-10-12T17:49:13.797Z,28.73
2018-10-12T17:51:42.813Z,27.00
2018-10-12T17:54:12.282Z,29.27
2018-10-12T17:56:42.102Z,30.10
2018-10-12T17:59:11.188Z,28.03
2018-10-12T18:01:40.606Z,27.50
2018-10-12T18:04:10.028Z,27.20
2018-10-12T18:06:39.061Z,32.53
2018-10-12T18:09:09.545Z,28.13
2018-10-12T18:11:39.089Z,31.47
2018-10-12T18:14:09.106Z,29.80
2018-10-12T18:16:39.132Z,31.97
2018-10-12T18:19:08.184Z,31.68
2018-10-12T18:21:37.214Z,35.40
2018-10-12T18:24:06.036Z,31.70
2018-10-12T18:26:35.323Z,30.10
2018-10-12T18:29:04.706Z,31.03
2018-10-12T18:31:33.666Z,38.60
2018-10-12T18:34:02.655Z,32.00
2018-10-12T18:36:31.578Z,29.13
2018-10-12T18:39:00.662Z,31.03
2018-10-12T18:41:30.777Z,32.87
2018-10-12T18:44:00.426Z,29.40
2018-10-12T18:46:29.524Z,33.40
2018-10-12T18:48:58.553Z,34.93
2018-10-12T18:51:27.444Z,34.70
2018-10-12T18:53:57.989Z,33.03
2018-10-12T18:56:27.441Z,31.70
2018-10-12T18:58:56.544Z,32.03
2018-10-12T19:01:25.660Z,32.93
2018-10-12T19:03:54.854Z,30.03
2018-10-12T19:06:23.983Z,35.13
2018-10-12T19:08:53.876Z,29.43
2018-10-12T19:11:23.336Z,35.53
2018-10-12T19:13:52.652Z,29.87
2018-10-12T19:16:21.772Z,32.57
2018-10-12T19:18:51.176Z,31.50
2018-10-12T19:21:20.173Z,33.07
2018-10-12T19:23:49.251Z,30.40
2018-10-12T19:26:18.613Z,31.93
2018-10-12T19:28:47.954Z,33.03
2018-10-12T19:31:17.020Z,33.27
2018-10-12T19:33:45.886Z,33.83
2018-10-12T19:36:15.196Z,31.00
2018-10-12T19:38:45.077Z,35.47
2018-10-12T19:41:14.191Z,35.37
2018-10-12T19:43:43.233Z,31.13
2018-10-12T19:46:12.041Z,38.20
2018-10-12T19:48:41.993Z,33.80
2018-10-12T19:51:10.880Z,36.37
2018-10-12T19:53:40.090Z,35.93
2018-10-12T19:56:09.441Z,34.20
2018-10-12T19:58:38.824Z,34.37
2018-10-12T20:01:08.669Z,32.87
2018-10-12T20:03:38.521Z,31.03
2018-10-12T20:06:08.165Z,33.53
2018-10-12T20:08:37.218Z,34.43
2018-10-12T20:11:06.418Z,34.63
2018-10-12T20:13:35.822Z,37.33
2018-10-12T20:16:05.213Z,35.93
2018-10-12T20:18:34.310Z,34.73
2018-10-12T20:21:03.941Z,35.47
2018-10-12T20:23:34.055Z,34.57
2018-10-12T20:26:03.677Z,33.73
2018-10-12T20:28:32.531Z,34.33
2018-10-12T20:31:01.426Z,38.03
2018-10-12T20:33:30.874Z,37.97
2018-10-12T20:35:59.648Z,35.07
2018-10-12T20:38:29.147Z,32.93
2018-10-12T20:40:58.704Z,37.30
2018-10-12T20:43:28.496Z,34.27
2018-10-12T20:45:59.274Z,34.57
2018-10-12T20:48:28.924Z,35.20
2018-10-12T20:50:58.101Z,38.90
2018-10-12T20:53:27.203Z,35.27
2018-10-12T20:55:56.449Z,38.13
2018-10-12T20:58:26.853Z,35.47
2018-10-12T21:00:56.077Z,36.47
2018-10-12T21:03:25.359Z,40.03
2018-10-12T21:05:55.129Z,34.83
2018-10-12T21:08:24.077Z,37.47
2018-10-12T21:10:53.186Z,38.03
2018-10-12T21:13:22.574Z,42.07
2018-10-12T21:15:51.247Z,34.77
2018-10-12T21:18:21.189Z,37.17
2018-10-12T21:20:50.313Z,40.57
2018-10-12T21:23:19.478Z,38.70
2018-10-12T21:25:48.677Z,37.40
2018-10-12T21:28:18.730Z,43.20
2018-10-12T21:30:47.643Z,39.80
2018-10-12T21:33:16.403Z,38.73
2018-10-12T21:35:45.915Z,36.70
2018-10-12T21:38:15.089Z,36.60
2018-10-12T21:40:49.317Z,32.98
2018-10-12T21:43:17.665Z,36.97
2018-10-12T21:45:47.248Z,39.53
2018-10-12T21:48:24.055Z,37.10
2018-10-12T21:50:53.826Z,38.73
2018-10-12T21:53:22.665Z,36.37
2018-10-12T21:55:51.802Z,40.30
2018-10-12T21:58:21.144Z,37.13
2018-10-12T22:00:55.224Z,37.60
2018-10-12T22:03:24.830Z,41.65
2018-10-12T22:05:53.774Z,36.80
2018-10-12T22:08:28.893Z,35.53
2018-10-12T22:10:59.261Z,37.50
2018-10-12T22:13:27.650Z,36.40
2018-10-12T22:15:56.412Z,38.53
2018-10-12T22:18:25.776Z,38.27
2018-10-12T22:20:54.757Z,37.20
2018-10-12T22:23:27.049Z,39.10
2018-10-12T22:25:57.534Z,40.20
2018-10-12T22:28:26.437Z,38.00
2018-10-12T22:30:56.016Z,39.77
2018-10-12T22:33:25.236Z,37.90
2018-10-12T22:35:54.473Z,34.80
2018-10-12T22:38:27.248Z,37.03
2018-10-12T22:40:56.653Z,38.37
2018-10-12T22:43:26.450Z,39.10
2018-10-12T22:45:55.917Z,35.23
2018-10-12T22:48:25.538Z,39.93
2018-10-12T22:50:55.282Z,34.73
2018-10-12T22:53:24.992Z,38.23
2018-10-12T22:55:54.661Z,38.03
2018-10-12T22:58:23.632Z,35.07
2018-10-12T23:00:58.074Z,38.43
2018-10-12T23:03:27.625Z,38.80
2018-10-12T23:05:56.381Z,35.43
2018-10-12T23:08:25.479Z,33.47
2018-10-12T23:10:54.813Z,34.17
2018-10-12T23:13:24.308Z,31.60
2018-10-12T23:15:53.617Z,36.47
2018-10-12T23:18:22.970Z,37.27
2018-10-12T23:20:51.692Z,34.87
2018-10-12T23:23:21.013Z,32.33
2018-10-12T23:25:49.657Z,32.20
2018-10-12T23:28:18.993Z,32.97
2018-10-12T23:30:48.881Z,37.87
2018-10-12T23:33:23.665Z,32.90
2018-10-12T23:35:53.169Z,35.73
2018-10-12T23:38:23.213Z,32.87
2018-10-12T23:40:52.684Z,29.87
2018-10-12T23:43:22.089Z,35.53
2018-10-12T23:45:50.810Z,34.10
2018-10-12T23:48:20.421Z,36.70
2018-10-12T23:50:51.348Z,33.10
2018-10-12T23:53:20.938Z,33.17
2018-10-12T23:55:50.233Z,31.03
2018-10-12T23:58:19.231Z,33.50
